createdAt,value
2022-12-08T00:00:38.996Z,1.21
2022-12-08T00:01:39.211Z,1.18
2022-12-08T00:02:39.598Z,1.15
2022-12-08T00:03:39.359Z,1.12
2022-12-08T00:04:38.894Z,1.17
2022-12-08T00:05:39.156Z,1.18
2022-12-08T00:06:38.853Z,1.18
2022-12-08T00:07:38.908Z,1.18
2022-12-08T00:08:38.814Z,1.24
2022-12-08T00:09:43.875Z,1.18
2022-12-08T00:10:53.633Z,1.28
2022-12-08T00:11:39.291Z,1.2
2022-12-08T00:12:38.734Z,1.17
2022-12-08T00:13:38.716Z,1.15
2022-12-08T00:14:38.964Z,1.18
2022-12-08T00:15:38.680Z,1.15
2022-12-08T00:16:39.093Z,1.18
2022-12-08T00:17:38.896Z,1.15
2022-12-08T00:18:38.939Z,1.22
2022-12-08T00:19:38.856Z,1.15
2022-12-08T00:20:38.601Z,1.22
2022-12-08T00:21:38.598Z,1.2
2022-12-08T00:22:38.546Z,1.17
2022-12-08T00:23:38.270Z,1.12
2022-12-08T00:24:38.510Z,1.14
2022-12-08T00:25:38.501Z,1.1
2022-12-08T00:26:38.720Z,1.2
2022-12-08T00:27:38.703Z,1.14
2022-12-08T00:28:38.175Z,1.12
2022-12-08T00:29:38.656Z,1.15
2022-12-08T00:30:38.388Z,1.17
2022-12-08T00:31:38.892Z,1.14
2022-12-08T00:32:38.615Z,1.04
2022-12-08T00:33:38.080Z,1.17
2022-12-08T00:34:38.365Z,1.1
2022-12-08T00:35:45.843Z,1.2
2022-12-08T00:36:38.274Z,1.22
2022-12-08T00:37:38.276Z,1.15
2022-12-08T00:38:38.011Z,1.17
2022-12-08T00:39:38.197Z,1.17
2022-12-08T00:40:38.190Z,1.17
2022-12-08T00:41:38.428Z,1.17
2022-12-08T00:42:38.408Z,1.2
2022-12-08T00:43:37.866Z,1.2
2022-12-08T00:44:38.359Z,1.28
2022-12-08T00:45:38.208Z,1.18
2022-12-08T00:46:38.070Z,1.2
2022-12-08T00:47:38.048Z,1.24
2022-12-08T00:48:38.036Z,1.32
2022-12-08T00:49:38.267Z,1.3
2022-12-08T00:50:38.053Z,1.24
2022-12-08T00:51:38.227Z,1.17
2022-12-08T00:52:38.212Z,1.32
2022-12-08T00:53:37.973Z,1.36
2022-12-08T00:54:38.177Z,1.33
2022-12-08T00:55:37.644Z,1.38
2022-12-08T00:56:38.135Z,1.32
2022-12-08T00:57:37.859Z,1.26
2022-12-08T00:58:37.838Z,1.28
2022-12-08T00:59:37.818Z,1.32
2022-12-08T01:00:37.801Z,1.33
2022-12-08T01:01:37.811Z,1.39
2022-12-08T01:02:38.019Z,1.42
2022-12-08T01:03:38.048Z,1.29
2022-12-08T01:04:37.726Z,1.29
2022-12-08T01:05:37.962Z,1.29
2022-12-08T01:06:37.736Z,1.29
2022-12-08T01:07:37.949Z,1.42
2022-12-08T01:08:37.648Z,1.39
2022-12-08T01:09:37.649Z,1.4
2022-12-08T01:10:37.611Z,1.4
2022-12-08T01:11:37.833Z,1.42
2022-12-08T01:12:37.832Z,1.33
2022-12-08T01:13:37.803Z,1.42
2022-12-08T01:14:37.530Z,1.35
2022-12-08T01:15:37.760Z,1.36
2022-12-08T01:16:37.454Z,1.39
2022-12-08T01:17:37.468Z,1.38
2022-12-08T01:18:37.449Z,1.38
2022-12-08T01:19:37.704Z,1.39
2022-12-08T01:20:37.155Z,1.35
2022-12-08T01:21:37.413Z,1.35
2022-12-08T01:22:37.430Z,1.46
2022-12-08T01:23:37.354Z,1.38
2022-12-08T01:24:37.331Z,1.48
2022-12-08T01:25:37.339Z,1.39
2022-12-08T01:26:37.301Z,1.36
2022-12-08T01:27:37.299Z,1.36
2022-12-08T01:28:37.255Z,1.38
2022-12-08T01:29:38.160Z,1.44
2022-12-08T01:30:38.338Z,1.4
2022-12-08T01:31:37.878Z,1.38
2022-12-08T01:32:37.851Z,1.32
2022-12-08T01:33:37.861Z,1.39
2022-12-08T01:34:37.557Z,1.46
2022-12-08T01:35:38.073Z,1.39
2022-12-08T01:36:37.786Z,1.39
2022-12-08T01:37:37.756Z,1.38
2022-12-08T01:38:38.048Z,1.39
2022-12-08T01:39:38.869Z,1.42
2022-12-08T01:41:38.642Z,1.38
2022-12-08T01:42:38.538Z,1.39
2022-12-08T01:43:38.759Z,1.39
2022-12-08T01:44:38.732Z,1.44
2022-12-08T01:45:38.490Z,1.26
2022-12-08T01:46:38.671Z,1.33
2022-12-08T01:47:38.341Z,1.29
2022-12-08T01:48:38.414Z,1.3
2022-12-08T01:49:38.385Z,1.39
2022-12-08T01:50:38.370Z,1.39
2022-12-08T01:51:38.353Z,1.36
2022-12-08T01:52:38.589Z,1.39
2022-12-08T01:53:38.575Z,1.44
2022-12-08T01:54:38.598Z,1.38
2022-12-08T01:55:38.532Z,1.39
2022-12-08T01:56:38.502Z,1.39
2022-12-08T01:57:38.259Z,1.36
2022-12-08T01:58:38.217Z,1.33
2022-12-08T01:59:38.197Z,1.36
2022-12-08T02:00:38.174Z,1.39
2022-12-08T02:01:38.189Z,1.33
2022-12-08T02:02:38.285Z,1.29
2022-12-08T02:03:38.127Z,1.33
2022-12-08T02:04:38.099Z,1.33
2022-12-08T02:05:38.345Z,1.29
2022-12-08T02:06:38.067Z,1.29
2022-12-08T02:07:38.161Z,1.35
2022-12-08T02:08:38.285Z,1.32
2022-12-08T02:09:38.262Z,1.22
2022-12-08T02:10:38.049Z,1.32
2022-12-08T02:11:37.731Z,1.32
2022-12-08T02:12:37.956Z,1.32
2022-12-08T02:13:38.201Z,1.38
2022-12-08T02:14:38.166Z,1.32
2022-12-08T02:15:37.859Z,1.35
2022-12-08T02:16:37.968Z,1.36
2022-12-08T02:17:37.854Z,1.32
2022-12-08T02:18:37.831Z,1.36
2022-12-08T02:19:38.075Z,1.3
2022-12-08T02:20:37.800Z,1.33
2022-12-08T02:21:37.771Z,1.3
2022-12-08T02:22:38.003Z,1.32
2022-12-08T02:23:37.990Z,1.32
2022-12-08T02:24:37.973Z,1.28
2022-12-08T02:25:37.700Z,1.32
2022-12-08T02:26:37.719Z,1.32
2022-12-08T02:27:37.657Z,1.18
2022-12-08T02:28:37.649Z,1.21
2022-12-08T02:29:37.897Z,1.24
2022-12-08T02:30:37.860Z,1.22
2022-12-08T02:31:37.325Z,1.24
2022-12-08T02:32:37.564Z,1.24
2022-12-08T02:33:37.535Z,1.22
2022-12-08T02:34:37.776Z,1.28
2022-12-08T02:35:37.763Z,1.3
2022-12-08T02:36:37.495Z,1.28
2022-12-08T02:37:37.467Z,1.26
2022-12-08T02:38:37.447Z,1.2
2022-12-08T02:39:37.423Z,1.29
2022-12-08T02:40:37.668Z,1.21
2022-12-08T02:41:37.381Z,1.18
2022-12-08T02:42:37.668Z,1.14
2022-12-08T02:43:37.600Z,1.2
2022-12-08T02:44:37.069Z,1.18
2022-12-08T02:45:37.582Z,1.17
2022-12-08T02:46:38.577Z,1.18
2022-12-08T02:47:37.900Z,1.18
2022-12-08T02:48:37.891Z,1.15
2022-12-08T02:49:37.864Z,1.17
2022-12-08T02:50:37.844Z,1.21
2022-12-08T02:51:38.092Z,1.14
2022-12-08T02:52:37.554Z,1.11
2022-12-08T02:53:37.789Z,1.15
2022-12-08T02:54:37.761Z,1.15
2022-12-08T02:55:38.003Z,1.17
2022-12-08T02:56:37.735Z,1.12
2022-12-08T02:57:37.714Z,1.18
2022-12-08T02:58:37.738Z,1.04
2022-12-08T02:59:37.675Z,1.18
2022-12-08T03:00:37.653Z,1.11
2022-12-08T03:01:38.167Z,1.12
2022-12-08T03:02:38.094Z,1.15
2022-12-08T03:03:37.338Z,1.11
2022-12-08T03:04:37.591Z,1.1
2022-12-08T03:05:37.550Z,1.14
2022-12-08T03:06:37.806Z,1.03
2022-12-08T03:07:37.519Z,1.15
2022-12-08T03:08:37.495Z,1.14
2022-12-08T03:09:37.730Z,1.1
2022-12-08T03:10:37.446Z,1.17
2022-12-08T03:11:37.430Z,1.1
2022-12-08T03:12:37.175Z,1.17
2022-12-08T03:13:37.400Z,1.12
2022-12-08T03:14:37.683Z,1.14
2022-12-08T03:15:37.561Z,1.18
2022-12-08T03:16:37.339Z,1.18
2022-12-08T03:17:37.351Z,1.17
2022-12-08T03:18:37.305Z,1.15
2022-12-08T03:19:37.542Z,1.17
2022-12-08T03:20:37.267Z,1.12
2022-12-08T03:21:36.994Z,1.02
2022-12-08T03:22:37.364Z,1.04
2022-12-08T03:23:37.195Z,1.18
2022-12-08T03:24:37.178Z,1.14
2022-12-08T03:25:37.421Z,1.1
2022-12-08T03:26:37.138Z,1.2
2022-12-08T03:27:37.124Z,1.11
2022-12-08T03:28:37.102Z,1.17
2022-12-08T03:29:37.346Z,1.18
2022-12-08T03:30:38.468Z,1.1
2022-12-08T03:31:38.635Z,1.14
2022-12-08T03:32:38.305Z,1.1
2022-12-08T03:50:21.345Z,1.1
2022-12-08T03:51:20.978Z,1.14
2022-12-08T03:52:20.956Z,1.04
2022-12-08T03:53:20.938Z,1.1
2022-12-08T03:54:20.926Z,1.1
2022-12-08T03:55:21.146Z,1.1
2022-12-08T03:56:21.122Z,1.03
2022-12-08T03:57:20.599Z,1.1
2022-12-08T03:58:20.583Z,1.12
2022-12-08T03:59:20.552Z,1.11
2022-12-08T04:00:20.528Z,1.04
2022-12-08T04:01:20.730Z,1.07
2022-12-08T04:02:21.099Z,1.04
2022-12-08T04:03:21.202Z,1.03
2022-12-08T04:04:20.703Z,1.04
2022-12-08T04:05:20.934Z,1.07
2022-12-08T04:06:21.005Z,1.1
2022-12-08T04:07:20.656Z,1.07
2022-12-08T04:08:21.232Z,1.1
2022-12-08T04:09:20.602Z,1.04
2022-12-08T04:10:20.582Z,1.14
2022-12-08T04:11:20.317Z,1.03
2022-12-08T04:12:20.800Z,1.11
2022-12-08T04:13:20.778Z,1.1
2022-12-08T04:14:20.539Z,1.08
2022-12-08T04:15:20.484Z,1.12
2022-12-08T04:16:20.815Z,1.11
2022-12-08T04:17:20.706Z,1.14
2022-12-08T04:18:20.186Z,1.12
2022-12-08T04:19:20.653Z,1.12
2022-12-08T04:20:20.662Z,1.12
2022-12-08T04:21:20.375Z,1.11
2022-12-08T04:22:20.691Z,1.03
2022-12-08T04:23:20.781Z,1.14
2022-12-08T04:24:20.563Z,1.17
2022-12-08T04:25:20.294Z,1.03
2022-12-08T04:26:20.523Z,1.17
2022-12-08T04:27:20.495Z,1.18
2022-12-08T04:28:20.486Z,1.14
2022-12-08T04:29:20.213Z,1.11
2022-12-08T04:30:19.935Z,1.11
2022-12-08T04:31:20.731Z,1.18
2022-12-08T04:32:20.404Z,1.14
2022-12-08T04:33:19.879Z,1.12
2022-12-08T04:34:20.122Z,1.12
2022-12-08T04:35:19.841Z,1.2
2022-12-08T04:36:20.071Z,1.12
2022-12-08T04:37:19.791Z,1.17
2022-12-08T04:38:20.381Z,1.12
2022-12-08T04:39:20.269Z,1.14
2022-12-08T04:40:19.739Z,1.18
2022-12-08T04:41:19.978Z,1.14
2022-12-08T04:42:20.220Z,1.14
2022-12-08T04:43:19.950Z,1.18
2022-12-08T04:44:19.916Z,1.17
2022-12-08T04:45:20.150Z,1.14
2022-12-08T04:46:20.081Z,1.17
2022-12-08T04:47:20.125Z,1.17
2022-12-08T04:48:19.834Z,1.21
2022-12-08T04:49:20.074Z,1.14
2022-12-08T04:50:20.046Z,1.17
2022-12-08T04:51:20.039Z,1.18
2022-12-08T04:52:20.019Z,1.14
2022-12-08T04:53:19.754Z,1.11
2022-12-08T04:54:20.069Z,1.14
2022-12-08T04:55:19.696Z,1.21
2022-12-08T04:56:19.440Z,1.18
2022-12-08T04:57:19.916Z,1.18
2022-12-08T04:58:19.636Z,1.12
2022-12-08T04:59:19.882Z,1.18
2022-12-08T05:00:19.607Z,1.18
2022-12-08T05:01:19.858Z,1.2
2022-12-08T05:02:20.226Z,1.18
2022-12-08T05:03:25.234Z,1.12
2022-12-08T05:04:19.524Z,1.15
2022-12-08T05:05:19.251Z,1.18
2022-12-08T05:06:19.484Z,1.21
2022-12-08T05:07:19.214Z,1.18
2022-12-08T05:08:19.680Z,1.15
2022-12-08T05:09:19.678Z,1.17
2022-12-08T05:10:19.743Z,1.26
2022-12-08T05:11:19.643Z,1.24
2022-12-08T05:12:19.365Z,1.15
2022-12-08T05:13:19.601Z,1.17
2022-12-08T05:14:19.580Z,1.21
2022-12-08T05:15:19.314Z,1.21
2022-12-08T05:16:19.550Z,1.24
2022-12-08T05:17:19.013Z,1.24
2022-12-08T05:18:18.996Z,1.24
2022-12-08T05:19:19.486Z,1.24
2022-12-08T05:20:19.222Z,1.14
2022-12-08T05:21:18.936Z,1.21
2022-12-08T05:22:18.915Z,1.18
2022-12-08T05:23:19.409Z,1.21
2022-12-08T05:24:19.397Z,1.24
2022-12-08T05:25:19.124Z,1.18
2022-12-08T05:26:19.427Z,1.26
2022-12-08T05:27:19.351Z,1.21
2022-12-08T05:28:46.135Z,1.3
2022-12-08T05:29:18.782Z,1.29
2022-12-08T05:30:19.009Z,1.29
2022-12-08T05:31:19.250Z,1.28
2022-12-08T05:32:19.234Z,1.26
2022-12-08T05:33:19.218Z,1.28
2022-12-08T05:34:18.950Z,1.28
2022-12-08T05:35:19.175Z,1.24
2022-12-08T05:36:19.159Z,1.17
2022-12-08T05:37:18.879Z,1.24
2022-12-08T05:38:18.866Z,1.17
2022-12-08T05:39:18.590Z,1.28
2022-12-08T05:40:18.570Z,1.29
2022-12-08T05:41:19.068Z,1.2
2022-12-08T05:42:25.037Z,1.22
2022-12-08T05:43:18.516Z,1.22
2022-12-08T05:44:19.011Z,1.21
2022-12-08T05:45:18.989Z,1.24
2022-12-08T05:46:19.217Z,1.18
2022-12-08T05:47:18.942Z,1.17
2022-12-08T05:48:18.681Z,1.24
2022-12-08T05:49:18.655Z,1.22
2022-12-08T05:50:18.639Z,1.29
2022-12-08T05:51:18.890Z,1.21
2022-12-08T05:52:18.590Z,1.22
2022-12-08T05:53:18.837Z,1.21
2022-12-08T05:54:18.870Z,1.24
2022-12-08T05:55:18.798Z,1.2
2022-12-08T05:56:18.776Z,1.22
2022-12-08T05:57:18.519Z,1.22
2022-12-08T05:58:18.812Z,1.28
2022-12-08T05:59:18.454Z,1.2
2022-12-08T06:00:18.193Z,1.21
2022-12-08T06:01:18.672Z,1.21
2022-12-08T06:02:18.928Z,1.28
2022-12-08T06:03:18.845Z,1.18
2022-12-08T06:04:18.372Z,1.21
2022-12-08T06:05:18.089Z,1.21
2022-12-08T06:06:18.319Z,1.18
2022-12-08T06:07:20.793Z,1.26
2022-12-08T06:08:18.648Z,1.22
2022-12-08T06:09:18.261Z,1.26
2022-12-08T06:10:18.250Z,1.26
2022-12-08T06:11:18.625Z,1.17
2022-12-08T06:12:18.207Z,1.2
2022-12-08T06:13:18.188Z,1.28
2022-12-08T06:14:18.525Z,1.18
2022-12-08T06:15:18.402Z,1.22
2022-12-08T06:16:18.621Z,1.14
2022-12-08T06:17:18.112Z,1.24
2022-12-08T06:18:18.161Z,1.2
2022-12-08T06:19:18.132Z,1.21
2022-12-08T06:20:17.861Z,1.2
2022-12-08T06:21:18.103Z,1.2
2022-12-08T06:22:18.333Z,1.18
2022-12-08T06:23:18.311Z,1.17
2022-12-08T06:24:18.293Z,1.1
2022-12-08T06:25:18.275Z,1.14
2022-12-08T06:26:17.751Z,1.18
2022-12-08T06:27:18.273Z,1.17
2022-12-08T06:28:18.213Z,1.21
2022-12-08T06:29:17.943Z,1.15
2022-12-08T06:30:18.271Z,1.21
2022-12-08T06:31:18.172Z,1.22
2022-12-08T06:32:20.758Z,1.22
2022-12-08T06:33:18.124Z,1.2
2022-12-08T06:34:17.591Z,1.17
2022-12-08T06:35:18.077Z,1.24
2022-12-08T06:36:17.804Z,1.22
2022-12-08T06:37:17.791Z,1.26
2022-12-08T06:38:17.769Z,1.21
2022-12-08T06:39:17.494Z,1.22
2022-12-08T06:40:17.726Z,1.24
2022-12-08T06:41:17.720Z,1.28
2022-12-08T06:42:17.694Z,1.26
2022-12-08T06:43:17.936Z,1.15
2022-12-08T06:44:17.662Z,1.18
2022-12-08T06:45:17.627Z,1.17
2022-12-08T06:46:18.382Z,1.15
2022-12-08T06:47:20.035Z,1.18
2022-12-08T06:48:17.572Z,1.12
2022-12-08T06:49:17.820Z,1.21
2022-12-08T06:50:17.799Z,1.18
2022-12-08T06:51:17.513Z,1.18
2022-12-08T06:52:17.503Z,1.2
2022-12-08T06:53:17.488Z,1.2
2022-12-08T06:54:17.203Z,1.17
2022-12-08T06:56:09.901Z,1.21
2022-12-08T06:56:20.762Z,1.2
2022-12-08T06:57:20.682Z,1.24
2022-12-08T06:58:20.656Z,1.28
2022-12-08T06:59:20.660Z,1.18
2022-12-08T07:00:20.619Z,1.24
2022-12-08T07:01:21.214Z,1.22
2022-12-08T07:02:20.778Z,1.21
2022-12-08T07:03:20.825Z,1.18
2022-12-08T07:04:21.099Z,1.18
2022-12-08T07:05:21.344Z,1.12
2022-12-08T07:06:21.056Z,1.15
2022-12-08T07:07:20.781Z,1.17
2022-12-08T07:08:21.526Z,1.17
2022-12-08T07:09:20.996Z,1.17
2022-12-08T07:10:21.236Z,1.12
2022-12-08T07:11:26.307Z,1.12
2022-12-08T07:12:20.935Z,1.11
2022-12-08T07:13:20.687Z,1.15
2022-12-08T07:14:21.173Z,1.11
2022-12-08T07:15:21.137Z,1.11
2022-12-08T07:16:21.477Z,1.14
2022-12-08T07:17:21.251Z,1.15
2022-12-08T07:18:21.093Z,1.17
2022-12-08T07:19:20.805Z,1.15
2022-12-08T07:20:21.043Z,1.21
2022-12-08T07:21:20.769Z,1.21
2022-12-08T07:22:20.501Z,1.18
2022-12-08T07:23:20.725Z,1.18
2022-12-08T07:24:20.959Z,1.22
2022-12-08T07:25:20.690Z,1.18
2022-12-08T07:26:20.671Z,1.18
2022-12-08T07:27:20.652Z,1.21
2022-12-08T07:28:20.901Z,1.18
2022-12-08T07:29:28.356Z,1.15
2022-12-08T07:30:20.600Z,1.14
2022-12-08T07:31:20.893Z,1.18
2022-12-08T07:32:20.557Z,1.08
2022-12-08T07:33:20.888Z,1.1
2022-12-08T07:34:20.520Z,1.11
2022-12-08T07:35:21.578Z,1.07
2022-12-08T07:36:20.473Z,1.11
2022-12-08T07:37:20.462Z,1.12
2022-12-08T07:38:20.703Z,1.2
2022-12-08T07:39:20.413Z,1.14
2022-12-08T07:40:20.151Z,1.17
2022-12-08T07:41:21.669Z,1.2
2022-12-08T07:42:20.369Z,1.15
2022-12-08T07:43:20.344Z,1.17
2022-12-08T07:44:20.580Z,1.17
2022-12-08T07:45:20.556Z,1.18
2022-12-08T07:46:20.860Z,1.14
2022-12-08T07:47:20.015Z,1.17
2022-12-08T07:48:20.251Z,1.21
2022-12-08T07:49:20.649Z,1.17
2022-12-08T07:50:20.203Z,1.18
2022-12-08T07:51:20.219Z,1.24
2022-12-08T07:52:20.437Z,1.21
2022-12-08T07:53:20.413Z,1.21
2022-12-08T07:54:20.138Z,1.18
2022-12-08T07:55:20.370Z,1.2
2022-12-08T07:56:20.098Z,1.24
2022-12-08T07:57:20.082Z,1.2
2022-12-08T07:58:20.311Z,1.2
2022-12-08T07:59:20.029Z,1.2
2022-12-08T08:00:20.021Z,1.24
2022-12-08T08:01:20.856Z,1.28
2022-12-08T08:02:29.863Z,1.3
2022-12-08T08:03:20.390Z,1.33
2022-12-08T08:04:19.831Z,1.21
2022-12-08T08:05:20.282Z,1.21
2022-12-08T08:06:19.643Z,1.32
2022-12-08T08:07:19.635Z,1.36
2022-12-08T08:08:20.390Z,1.35
2022-12-08T08:09:19.846Z,1.4
2022-12-08T08:10:20.079Z,1.44
2022-12-08T08:11:25.494Z,1.36
2022-12-08T08:12:36.119Z,1.4
2022-12-08T08:13:20.022Z,1.36
2022-12-08T08:14:19.992Z,1.46
2022-12-08T08:15:20.223Z,1.56
2022-12-08T08:16:20.770Z,1.56
2022-12-08T08:17:20.344Z,1.61
2022-12-08T08:18:20.171Z,1.54
2022-12-08T08:19:19.893Z,1.64
2022-12-08T08:20:19.632Z,1.69
2022-12-08T08:21:49.303Z,1.6
2022-12-08T08:22:19.839Z,1.69
2022-12-08T08:23:20.072Z,1.74
2022-12-08T08:24:19.795Z,1.79
2022-12-08T08:25:19.777Z,1.72
2022-12-08T08:26:20.007Z,1.69
2022-12-08T08:27:19.516Z,1.76
2022-12-08T08:28:19.968Z,1.71
2022-12-08T08:29:19.951Z,1.75
2022-12-08T08:30:24.385Z,1.72
2022-12-08T08:31:19.818Z,1.83
2022-12-08T08:32:19.662Z,1.83
2022-12-08T08:33:19.632Z,1.71
2022-12-08T08:34:19.864Z,1.86
2022-12-08T08:35:19.588Z,1.82
2022-12-08T08:36:19.565Z,1.89
2022-12-08T08:37:20.277Z,2.01
2022-12-08T08:38:19.791Z,1.94
2022-12-08T08:39:19.769Z,1.97
2022-12-08T08:40:19.763Z,1.9
2022-12-08T08:41:19.473Z,1.92
2022-12-08T08:42:19.201Z,2.01
2022-12-08T08:43:19.182Z,2.02
2022-12-08T08:44:19.672Z,1.97
2022-12-08T08:45:19.654Z,1.94
2022-12-08T08:46:19.781Z,1.93
2022-12-08T08:47:19.111Z,1.92
2022-12-08T08:48:19.339Z,1.92
2022-12-08T08:49:19.596Z,2.02
2022-12-08T08:50:19.563Z,2.02
2022-12-08T08:51:19.567Z,2.06
2022-12-08T08:52:19.262Z,2.06
2022-12-08T08:53:19.581Z,2.08
2022-12-08T08:54:19.486Z,2.09
2022-12-08T08:55:19.571Z,2.02
2022-12-08T08:56:19.451Z,2.18
2022-12-08T08:57:26.333Z,2.29
2022-12-08T08:58:19.146Z,2.33
2022-12-08T08:59:19.393Z,2.49
2022-12-08T09:00:19.116Z,2.52
2022-12-08T09:01:19.297Z,2.54
2022-12-08T09:02:19.645Z,2.73
2022-12-08T09:03:19.059Z,2.78
2022-12-08T09:04:19.313Z,2.73
2022-12-08T09:05:19.268Z,2.73
2022-12-08T09:06:19.468Z,2.76
2022-12-08T09:07:18.999Z,2.66
2022-12-08T09:08:19.544Z,2.66
2022-12-08T09:09:19.305Z,2.67
2022-12-08T09:10:19.181Z,2.52
2022-12-08T09:11:19.167Z,2.6
2022-12-08T09:12:19.152Z,2.38
2022-12-08T09:13:18.865Z,2.4
2022-12-08T09:14:19.113Z,2.33
2022-12-08T09:15:18.683Z,2.23
2022-12-08T09:16:19.427Z,2.3
2022-12-08T09:17:18.546Z,2.23
2022-12-08T09:18:19.033Z,2.18
2022-12-08T09:19:19.014Z,2.2
2022-12-08T09:20:18.784Z,2.2
2022-12-08T09:21:18.784Z,2.2
2022-12-08T09:22:18.722Z,2.2
2022-12-08T09:23:18.429Z,2.22
2022-12-08T09:24:18.678Z,2.22
2022-12-08T09:25:18.996Z,2.29
2022-12-08T09:26:18.890Z,2.24
2022-12-08T09:27:18.354Z,2.23
2022-12-08T09:28:18.592Z,2.27
2022-12-08T09:29:18.569Z,2.24
2022-12-08T09:30:18.559Z,2.33
2022-12-08T09:31:18.899Z,2.3
2022-12-08T09:32:18.770Z,2.27
2022-12-08T09:33:18.749Z,2.2
2022-12-08T09:34:18.494Z,2.26
2022-12-08T09:35:18.476Z,2.3
2022-12-08T09:36:18.451Z,2.29
2022-12-08T09:37:18.438Z,2.29
2022-12-08T09:38:18.412Z,2.3
2022-12-08T09:39:18.137Z,2.29
2022-12-08T09:40:18.119Z,2.33
2022-12-08T09:41:18.692Z,2.29
2022-12-08T09:42:18.077Z,2.3
2022-12-08T09:43:18.317Z,2.33
2022-12-08T09:44:18.559Z,2.2
2022-12-08T09:45:18.278Z,2.16
2022-12-08T09:46:18.717Z,2.29
2022-12-08T09:47:18.236Z,2.31
2022-12-08T09:48:19.515Z,2.33
2022-12-08T09:49:18.306Z,2.31
2022-12-08T09:50:18.445Z,2.29
2022-12-08T09:51:18.159Z,2.31
2022-12-08T09:52:18.342Z,2.33
2022-12-08T09:53:18.312Z,2.44
2022-12-08T09:54:18.490Z,2.58
2022-12-08T09:55:18.350Z,2.54
2022-12-08T09:56:18.343Z,2.58
2022-12-08T09:57:18.390Z,2.62
2022-12-08T09:58:17.775Z,2.65
2022-12-08T09:59:18.295Z,2.62
2022-12-08T10:00:18.250Z,2.63
2022-12-08T10:01:18.286Z,2.72
2022-12-08T10:02:18.477Z,2.76
2022-12-08T10:03:21.362Z,2.85
2022-12-08T10:04:17.927Z,2.8
2022-12-08T10:05:18.419Z,2.95
2022-12-08T10:06:18.140Z,2.93
2022-12-08T10:07:17.868Z,2.99
2022-12-08T10:08:18.181Z,3.01
2022-12-08T10:09:25.253Z,3.03
2022-12-08T10:10:17.817Z,3.09
2022-12-08T10:11:18.052Z,2.99
2022-12-08T10:12:17.779Z,3.05
2022-12-08T10:13:18.102Z,3.14
2022-12-08T10:14:17.738Z,3.06
2022-12-08T10:15:17.732Z,3.16
2022-12-08T10:16:32.344Z,3.08
2022-12-08T10:17:17.938Z,3.16
2022-12-08T10:18:17.922Z,3.05
2022-12-08T10:19:17.927Z,3.09
2022-12-08T10:20:17.640Z,3.21
2022-12-08T10:21:17.879Z,3.11
2022-12-08T10:22:17.865Z,3.13
2022-12-08T10:23:17.583Z,3.19
2022-12-08T10:24:17.565Z,3.09
2022-12-08T10:25:17.540Z,3.11
2022-12-08T10:26:17.791Z,3.11
2022-12-08T10:27:17.761Z,3.05
2022-12-08T10:28:17.742Z,3.24
2022-12-08T10:29:17.834Z,3.17
2022-12-08T10:30:17.449Z,3.05
2022-12-08T10:31:17.696Z,3.01
2022-12-08T10:32:17.159Z,2.95
2022-12-08T10:33:17.660Z,2.8
2022-12-08T10:34:17.642Z,2.83
2022-12-08T10:35:17.620Z,2.76
2022-12-08T10:36:17.601Z,2.69
2022-12-08T10:37:17.327Z,2.69
2022-12-08T10:38:17.565Z,2.59
2022-12-08T10:39:17.291Z,2.58
2022-12-08T10:40:17.532Z,2.58
2022-12-08T10:41:17.259Z,2.63
2022-12-08T10:42:17.502Z,2.58
2022-12-08T10:43:17.474Z,2.59
2022-12-08T10:44:17.448Z,2.62
2022-12-08T10:45:17.514Z,2.55
2022-12-08T10:46:17.467Z,2.6
2022-12-08T10:47:17.629Z,2.66
2022-12-08T10:48:17.129Z,2.83
2022-12-08T10:49:17.369Z,2.85
2022-12-08T10:50:17.468Z,2.8
2022-12-08T10:51:17.346Z,2.85
2022-12-08T10:52:17.315Z,2.85
2022-12-08T10:53:17.312Z,2.83
2022-12-08T10:54:24.343Z,2.87
2022-12-08T10:55:17.030Z,2.84
2022-12-08T10:56:17.411Z,2.91
2022-12-08T10:57:17.245Z,2.95
2022-12-08T10:58:17.230Z,2.99
2022-12-08T10:59:16.963Z,2.91
2022-12-08T11:00:19.608Z,2.96
2022-12-08T11:01:17.643Z,2.9
2022-12-08T11:02:17.637Z,2.96
2022-12-08T11:03:17.098Z,2.95
2022-12-08T11:04:17.214Z,2.81
2022-12-08T11:05:16.939Z,2.85
2022-12-08T11:06:16.920Z,2.84
2022-12-08T11:07:17.202Z,2.85
2022-12-08T11:08:17.158Z,2.93
2022-12-08T11:09:16.608Z,2.81
2022-12-08T11:10:16.660Z,2.78
2022-12-08T11:11:17.132Z,2.83
2022-12-08T11:12:16.828Z,2.81
2022-12-08T11:13:16.796Z,2.76
2022-12-08T11:14:17.031Z,2.8
2022-12-08T11:15:17.032Z,2.81
2022-12-08T11:16:16.669Z,2.91
2022-12-08T11:17:17.072Z,2.95
2022-12-08T11:18:16.959Z,2.96
2022-12-08T11:19:16.683Z,3.01
2022-12-08T11:20:16.751Z,2.87
2022-12-08T11:21:16.653Z,2.87
2022-12-08T11:22:16.372Z,2.88
2022-12-08T11:23:16.889Z,2.9
2022-12-08T11:24:16.605Z,2.91
2022-12-08T11:25:16.596Z,2.98
2022-12-08T11:26:16.567Z,2.87
2022-12-08T11:27:16.554Z,2.96
2022-12-08T11:28:16.524Z,2.83
2022-12-08T11:29:16.511Z,2.85
2022-12-08T11:30:20.223Z,2.78
2022-12-08T11:31:16.614Z,2.88
2022-12-08T11:32:16.875Z,2.85
2022-12-08T11:33:16.776Z,2.77
2022-12-08T11:34:16.150Z,2.77
2022-12-08T11:35:16.395Z,2.87
2022-12-08T11:36:16.634Z,2.84
2022-12-08T11:37:16.679Z,2.95
2022-12-08T11:38:26.087Z,2.91
2022-12-08T11:39:16.331Z,2.9
2022-12-08T11:40:16.305Z,3.01
2022-12-08T11:41:20.951Z,2.96
2022-12-08T11:42:16.270Z,2.96
2022-12-08T11:43:16.533Z,3.03
2022-12-08T11:44:16.482Z,2.98
2022-12-08T11:45:15.961Z,3.05
2022-12-08T11:46:16.663Z,2.95
2022-12-08T11:47:16.495Z,3.01
2022-12-08T11:48:16.417Z,3.02
2022-12-08T11:49:16.468Z,3.02
2022-12-08T11:50:23.115Z,3.02
2022-12-08T11:51:15.849Z,3.05
2022-12-08T11:52:15.827Z,3.01
2022-12-08T11:53:16.082Z,3.02
2022-12-08T11:54:16.069Z,2.83
2022-12-08T11:55:16.287Z,2.91
2022-12-08T11:56:16.268Z,2.88
2022-12-08T11:57:15.818Z,2.91
2022-12-08T11:58:16.162Z,3.03
2022-12-08T11:59:15.961Z,3.03
2022-12-08T12:00:16.216Z,3.09
2022-12-08T12:01:16.185Z,3.08
2022-12-08T12:02:15.898Z,3.17
2022-12-08T12:03:16.162Z,3.21
2022-12-08T12:04:16.120Z,3.19
2022-12-08T12:05:27.977Z,3.26
2022-12-08T12:06:58.450Z,3.19
2022-12-08T12:07:31.451Z,3.17
2022-12-08T12:08:29.502Z,3.2
2022-12-08T12:09:29.238Z,3.19
2022-12-08T12:10:29.475Z,3.17
2022-12-08T12:11:29.184Z,3.27
2022-12-08T12:12:29.184Z,3.23
2022-12-08T12:13:29.412Z,3.3
2022-12-08T12:14:28.897Z,3.23
2022-12-08T12:15:29.116Z,3.24
2022-12-08T12:16:29.539Z,3.17
2022-12-08T12:17:29.341Z,3.06
2022-12-08T12:18:29.330Z,3.13
2022-12-08T12:19:28.788Z,2.93
2022-12-08T12:20:29.360Z,2.9
2022-12-08T12:21:29.277Z,2.93
2022-12-08T12:22:29.256Z,3.02
2022-12-08T12:23:29.242Z,3.03
2022-12-08T12:24:38.472Z,3.09
2022-12-08T12:25:28.932Z,3.06
2022-12-08T12:26:28.922Z,3.09
2022-12-08T12:27:28.892Z,3.13
2022-12-08T12:28:29.145Z,3.06
2022-12-08T12:29:28.857Z,3.06
2022-12-08T12:30:29.137Z,2.99
2022-12-08T12:31:28.846Z,3.01
2022-12-08T12:32:29.158Z,3.03
2022-12-08T12:33:28.792Z,2.88
2022-12-08T12:34:28.524Z,2.88
2022-12-08T12:35:32.342Z,2.99
2022-12-08T12:36:29.057Z,2.93
2022-12-08T12:37:28.463Z,2.99
2022-12-08T12:38:29.039Z,2.96
2022-12-08T12:39:28.688Z,3.02
2022-12-08T12:40:28.921Z,3.03
2022-12-08T12:41:30.555Z,3.05
2022-12-08T12:42:28.375Z,2.93
2022-12-08T12:43:28.620Z,2.96
2022-12-08T12:44:28.690Z,2.9
2022-12-08T12:45:28.572Z,2.88
2022-12-08T12:46:28.826Z,2.84
2022-12-08T12:47:28.542Z,2.84
2022-12-08T12:48:28.284Z,2.88
2022-12-08T12:49:28.768Z,2.9
2022-12-08T12:50:28.490Z,2.81
2022-12-08T12:51:28.776Z,2.81
2022-12-08T12:52:28.733Z,2.84
2022-12-08T12:53:28.175Z,2.7
2022-12-08T12:54:28.671Z,2.78
2022-12-08T12:55:28.659Z,2.72
2022-12-08T12:56:28.392Z,2.69
2022-12-08T12:57:28.368Z,2.67
2022-12-08T12:58:28.338Z,2.73
2022-12-08T12:59:28.340Z,2.72
2022-12-08T13:00:28.306Z,2.67
2022-12-08T13:01:28.464Z,2.72
2022-12-08T13:02:28.518Z,2.69
2022-12-08T13:03:28.511Z,2.6
2022-12-08T13:04:28.228Z,2.6
2022-12-08T13:05:28.481Z,2.58
2022-12-08T13:06:28.712Z,2.52
2022-12-08T13:07:28.983Z,2.54
2022-12-08T13:08:28.942Z,2.55
2022-12-08T13:09:28.508Z,2.48
2022-12-08T13:10:28.887Z,2.36
2022-12-08T13:11:28.862Z,2.52
2022-12-08T13:12:28.588Z,2.59
2022-12-08T13:13:28.567Z,2.55
2022-12-08T13:14:28.553Z,2.51
2022-12-08T13:15:28.535Z,2.51
2022-12-08T13:16:28.714Z,2.54
2022-12-08T13:17:28.747Z,2.55
2022-12-08T13:18:28.487Z,2.48
2022-12-08T13:19:28.719Z,2.54
2022-12-08T13:20:28.701Z,2.51
2022-12-08T13:21:28.233Z,2.59
2022-12-08T13:22:28.396Z,2.52
2022-12-08T13:23:28.713Z,2.52
2022-12-08T13:24:28.689Z,2.55
2022-12-08T13:25:31.366Z,2.59
2022-12-08T13:26:28.361Z,2.58
2022-12-08T13:27:28.576Z,2.52
2022-12-08T13:28:28.561Z,2.54
2022-12-08T13:29:28.023Z,2.45
2022-12-08T13:30:28.533Z,2.4
2022-12-08T13:31:28.074Z,2.29
2022-12-08T13:32:28.216Z,2.36
2022-12-08T13:33:27.941Z,2.3
2022-12-08T13:34:28.439Z,2.3
2022-12-08T13:35:28.161Z,2.36
2022-12-08T13:36:27.888Z,2.38
2022-12-08T13:37:28.377Z,2.31
2022-12-08T13:38:28.113Z,2.3
2022-12-08T13:39:28.149Z,2.33